Time;durP1;ratioP1;P1;durP2;ratioP2;P2;SDS_P1;SDS_P2;PMS_P1;PMS_P2;Temp;Humidity;BMP_temperature;BMP_pressure;BME280_temperature;BME280_humidity;BME280_pressure;Samples;Min_cycle;Max_cycle;Signal;HPM_P1;HPM_P2
2022/12/10 00:01:13;;;;;;;56.90;25.88;;;-0.10;99.90;;;;;;5093929;28;20287;-62
2022/12/10 00:03:40;;;;;;;61.33;25.23;;;-0.10;99.90;;;;;;5094451;28;20200;-62
2022/12/10 00:06:10;;;;;;;56.83;23.20;;;-0.10;99.90;;;;;;5093678;28;20210;-60
2022/12/10 00:08:39;;;;;;;63.33;24.98;;;-0.10;99.90;;;;;;5094095;28;20203;-62
2022/12/10 00:11:09;;;;;;;60.55;27.27;;;0.00;99.90;;;;;;5094034;28;20207;-62
2022/12/10 00:13:37;;;;;;;55.47;22.98;;;-0.10;99.90;;;;;;5093858;28;20581;-61
2022/12/10 00:16:04;;;;;;;57.45;24.45;;;-0.10;99.90;;;;;;5093648;28;20226;-61
2022/12/10 00:18:31;;;;;;;48.83;23.05;;;-0.10;99.90;;;;;;5094917;28;20215;-63
2022/12/10 00:20:58;;;;;;;61.20;24.92;;;0.00;99.90;;;;;;5095101;28;20225;-62
2022/12/10 00:23:25;;;;;;;48.60;21.45;;;0.00;99.90;;;;;;5093551;28;20567;-62
2022/12/10 00:25:53;;;;;;;54.70;24.25;;;0.00;99.90;;;;;;5095399;28;20207;-61
2022/12/10 00:28:20;;;;;;;63.58;25.30;;;0.10;99.90;;;;;;5098851;28;20234;-61
2022/12/10 00:30:47;;;;;;;61.67;23.30;;;0.00;99.90;;;;;;5098440;28;20744;-62
2022/12/10 00:33:14;;;;;;;58.00;23.42;;;0.10;99.90;;;;;;5097889;28;20202;-61
2022/12/10 00:35:40;;;;;;;64.30;27.30;;;0.10;99.90;;;;;;5097807;28;20222;-62
2022/12/10 00:38:07;;;;;;;61.58;23.23;;;0.10;99.90;;;;;;5098156;28;20229;-61
2022/12/10 00:40:34;;;;;;;63.40;24.30;;;0.10;99.90;;;;;;5097568;28;20717;-61
2022/12/10 00:43:02;;;;;;;50.58;22.73;;;0.10;99.90;;;;;;5097694;28;20214;-62
2022/12/10 00:45:29;;;;;;;61.38;23.30;;;0.00;99.90;;;;;;5097918;28;20206;-62
2022/12/10 00:47:55;;;;;;;64.07;23.13;;;0.00;99.90;;;;;;5097484;28;20236;-62
2022/12/10 00:50:22;;;;;;;48.03;21.55;;;0.00;99.90;;;;;;5097511;28;20668;-61
2022/12/10 00:52:49;;;;;;;58.78;24.95;;;0.00;99.90;;;;;;5101010;28;20210;-61
2022/12/10 00:55:15;;;;;;;62.10;25.88;;;0.00;99.90;;;;;;5105503;28;20229;-63
2022/12/10 00:57:42;;;;;;;61.22;23.77;;;0.00;99.90;;;;;;5104485;28;20220;-62
2022/12/10 01:00:12;;;;;;;51.88;22.35;;;0.00;99.90;;;;;;5103396;28;20203;-62
2022/12/10 01:02:39;;;;;;;52.42;23.70;;;0.00;99.90;;;;;;5106558;28;20206;-63
2022/12/10 01:05:06;;;;;;;57.03;22.40;;;0.00;99.90;;;;;;5106590;28;20202;-62
2022/12/10 01:07:33;;;;;;;56.25;21.83;;;0.00;99.90;;;;;;5106966;28;20223;-62
2022/12/10 01:10:00;;;;;;;52.08;22.20;;;0.00;99.90;;;;;;5105060;28;20212;-62
2022/12/10 01:12:26;;;;;;;56.42;21.35;;;0.00;99.90;;;;;;5104842;28;20269;-62
2022/12/10 01:14:53;;;;;;;63.92;22.85;;;0.00;99.90;;;;;;5101946;28;20223;-62
2022/12/10 01:17:21;;;;;;;52.60;22.70;;;0.00;99.90;;;;;;5101271;28;20227;-63
2022/12/10 01:19:48;;;;;;;60.35;23.55;;;0.00;99.90;;;;;;5103570;28;20668;-61
2022/12/10 01:22:15;;;;;;;48.83;19.83;;;0.00;99.90;;;;;;5103756;28;20704;-62
2022/12/10 01:24:42;;;;;;;52.28;22.33;;;0.00;99.90;;;;;;5105534;28;20217;-62
2022/12/10 01:27:08;;;;;;;64.28;23.38;;;0.10;99.90;;;;;;5104529;28;20227;-63
2022/12/10 01:29:35;;;;;;;49.45;18.85;;;0.10;99.90;;;;;;5106590;28;20200;-62
2022/12/10 01:32:02;;;;;;;50.88;20.13;;;0.10;99.90;;;;;;5104708;28;20200;-62
2022/12/10 01:34:30;;;;;;;57.72;20.45;;;0.10;99.90;;;;;;5103324;28;20574;-62
2022/12/10 01:36:57;;;;;;;60.38;18.65;;;0.10;99.90;;;;;;5104391;28;20230;-62
2022/12/10 01:39:24;;;;;;;50.15;19.95;;;0.00;99.90;;;;;;5103116;28;20699;-62
2022/12/10 01:41:53;;;;;;;49.50;20.73;;;0.00;99.90;;;;;;5102726;28;20206;-62
2022/12/10 01:44:59;;;;;;;51.72;20.13;;;0.00;99.90;;;;;;5102061;28;20202;-62
2022/12/10 01:47:26;;;;;;;49.80;21.35;;;-0.10;99.90;;;;;;5099088;28;20231;-61
2022/12/10 01:49:54;;;;;;;57.42;21.00;;;-0.10;99.90;;;;;;5098178;28;20594;-62
2022/12/10 01:52:21;;;;;;;62.78;20.85;;;-0.10;99.90;;;;;;5098454;28;20550;-62
2022/12/10 01:54:48;;;;;;;58.55;20.88;;;-0.10;99.90;;;;;;5099602;28;20207;-61
2022/12/10 01:57:17;;;;;;;50.42;19.60;;;-0.10;99.90;;;;;;5099830;28;20224;-62
2022/12/10 01:59:45;;;;;;;48.60;19.10;;;-0.10;99.90;;;;;;5099899;28;20215;-61
2022/12/10 02:02:18;;;;;;;50.15;19.55;;;-0.10;99.90;;;;;;5102393;28;20204;-61
2022/12/10 02:05:02;;;;;;;46.55;19.33;;;-0.10;99.90;;;;;;5101524;28;20196;-62
2022/12/10 02:07:38;;;;;;;40.58;17.30;;;-0.10;99.90;;;;;;5100593;28;20227;-62
2022/12/10 02:10:14;;;;;;;44.35;17.63;;;-0.10;99.90;;;;;;5101583;28;20257;-62
2022/12/10 02:12:47;;;;;;;43.28;17.80;;;-0.10;99.90;;;;;;5102567;28;20547;-62
2022/12/10 02:15:17;;;;;;;49.55;19.40;;;0.00;99.90;;;;;;5103576;28;20211;-62
2022/12/10 02:17:48;;;;;;;44.25;18.15;;;-0.10;99.90;;;;;;5102746;28;20220;-61
2022/12/10 02:20:20;;;;;;;44.90;17.65;;;-0.10;99.90;;;;;;5102935;28;20188;-61
2022/12/10 02:22:51;;;;;;;42.58;15.68;;;-0.10;99.90;;;;;;5102010;28;20195;-62
2022/12/10 02:25:23;;;;;;;43.38;19.20;;;0.00;99.90;;;;;;5101982;28;20188;-62
2022/12/10 02:27:59;;;;;;;39.88;17.13;;;0.00;99.90;;;;;;5103645;28;20223;-61
2022/12/10 02:30:27;;;;;;;50.63;16.27;;;0.00;99.90;;;;;;5102293;28;20635;-62
2022/12/10 02:32:54;;;;;;;42.42;18.65;;;0.00;99.90;;;;;;5101839;28;20196;-62
2022/12/10 02:35:25;;;;;;;51.70;20.30;;;0.00;99.90;;;;;;5101660;28;20226;-61
2022/12/10 02:37:56;;;;;;;54.22;20.38;;;0.00;99.90;;;;;;5102449;28;20232;-62
2022/12/10 02:40:28;;;;;;;50.42;20.48;;;0.00;99.90;;;;;;5101894;28;20212;-62
2022/12/10 02:42:55;;;;;;;47.03;21.52;;;0.00;99.90;;;;;;5100673;28;20195;-61
2022/12/10 02:45:25;;;;;;;41.30;18.00;;;0.00;99.90;;;;;;5098840;28;20204;-62
2022/12/10 02:47:57;;;;;;;52.75;20.02;;;0.00;99.90;;;;;;5094367;28;20261;-62
2022/12/10 02:50:24;;;;;;;45.05;20.05;;;0.00;99.90;;;;;;5093747;28;20195;-62
2022/12/10 02:52:51;;;;;;;43.92;20.88;;;0.00;99.90;;;;;;5094800;28;20208;-63
2022/12/10 02:55:19;;;;;;;46.90;19.98;;;0.00;99.90;;;;;;5094820;28;20314;-62
2022/12/10 02:57:58;;;;;;;39.75;19.63;;;0.00;99.90;;;;;;5095375;28;20220;-62
2022/12/10 03:00:25;;;;;;;48.17;20.10;;;0.00;99.90;;;;;;5097016;28;20193;-62
2022/12/10 03:03:11;;;;;;;38.75;17.90;;;-0.10;99.90;;;;;;5095406;28;20230;-62
2022/12/10 03:05:45;;;;;;;41.42;18.40;;;-0.10;99.90;;;;;;5094571;28;20184;-62
2022/12/10 03:08:17;;;;;;;40.72;17.77;;;-0.10;99.90;;;;;;5094255;28;20231;-62
2022/12/10 03:10:52;;;;;;;48.25;20.27;;;-0.10;99.90;;;;;;5094721;28;20188;-62
2022/12/10 03:13:22;;;;;;;42.20;17.40;;;-0.10;99.90;;;;;;5096101;28;20193;-62
2022/12/10 03:15:51;;;;;;;42.88;19.00;;;-0.10;99.90;;;;;;5095921;28;20211;-62
2022/12/10 03:18:24;;;;;;;33.38;16.08;;;0.00;99.90;;;;;;5096922;28;20762;-62
2022/12/10 03:20:53;;;;;;;42.70;18.90;;;0.00;99.90;;;;;;5097958;28;20655;-60
2022/12/10 03:23:21;;;;;;;40.95;16.40;;;0.00;99.90;;;;;;5096289;28;20205;-63
2022/12/10 03:25:49;;;;;;;35.10;15.27;;;0.10;99.90;;;;;;5096469;28;20199;-62
2022/12/10 03:28:20;;;;;;;31.95;15.60;;;0.10;99.90;;;;;;5096577;28;20223;-61
2022/12/10 03:30:49;;;;;;;38.72;17.80;;;0.10;99.90;;;;;;5097330;28;20209;-62
2022/12/10 03:33:16;;;;;;;32.55;17.30;;;0.10;99.90;;;;;;5097368;28;20217;-62
2022/12/10 03:35:46;;;;;;;33.50;16.65;;;0.10;99.90;;;;;;5096525;28;20223;-62
2022/12/10 03:38:14;;;;;;;41.50;17.73;;;0.00;99.90;;;;;;5095680;28;20224;-62
2022/12/10 03:40:41;;;;;;;31.98;15.10;;;0.00;99.90;;;;;;5094635;28;20560;-61
2022/12/10 03:43:07;;;;;;;35.22;15.75;;;0.00;99.90;;;;;;5093971;28;20210;-62
2022/12/10 03:45:34;;;;;;;33.88;17.20;;;-0.10;99.90;;;;;;5094132;28;20203;-62
2022/12/10 03:48:01;;;;;;;41.33;18.15;;;0.00;99.90;;;;;;5093795;28;20227;-62
2022/12/10 03:50:28;;;;;;;42.83;19.58;;;0.00;99.90;;;;;;5094052;28;20219;-62
2022/12/10 03:52:56;;;;;;;34.25;17.85;;;-0.10;99.90;;;;;;5094473;28;20213;-63
2022/12/10 03:55:22;;;;;;;40.90;17.52;;;-0.10;99.90;;;;;;5094109;28;20214;-61
2022/12/10 03:57:49;;;;;;;37.13;17.00;;;-0.10;99.90;;;;;;5093868;28;20220;-61
2022/12/10 04:00:16;;;;;;;31.50;15.30;;;-0.10;99.90;;;;;;5093339;28;20198;-62
2022/12/10 04:02:43;;;;;;;38.08;17.35;;;-0.20;99.90;;;;;;5093313;28;20210;-61
2022/12/10 04:05:10;;;;;;;30.75;16.42;;;-0.20;99.90;;;;;;5093610;28;20207;-61
2022/12/10 04:10:43;;;;;;;32.67;16.95;;;-0.20;99.90;;;;;;5091271;28;20556;-61
2022/12/10 04:18:38;;;;;;;35.63;18.83;;;-0.20;99.90;;;;;;5079270;28;20188;-61
2022/12/10 04:29:02;;;;;;;36.97;17.15;;;-0.30;99.90;;;;;;5069931;28;20323;-65
2022/12/10 04:31:29;;;;;;;41.38;17.83;;;-0.40;99.90;;;;;;5072951;28;20599;-62
2022/12/10 04:33:56;;;;;;;33.45;14.93;;;-0.30;99.90;;;;;;5069732;28;20688;-63
2022/12/10 04:36:22;;;;;;;32.20;17.05;;;-0.30;99.90;;;;;;5069955;28;20212;-64
2022/12/10 04:38:49;;;;;;;44.20;17.90;;;-0.40;99.90;;;;;;5069810;28;20201;-64
2022/12/10 04:41:17;;;;;;;34.20;14.18;;;-0.40;99.90;;;;;;5069591;28;20201;-63
2022/12/10 04:43:44;;;;;;;37.95;15.68;;;-0.50;99.90;;;;;;5070247;28;20212;-63
2022/12/10 04:46:11;;;;;;;32.47;14.93;;;-0.50;99.90;;;;;;5069423;28;20215;-63
2022/12/10 04:48:38;;;;;;;34.47;15.73;;;-0.50;99.90;;;;;;5069613;28;20207;-64
2022/12/10 04:51:05;;;;;;;33.00;14.38;;;-0.50;99.90;;;;;;5069479;28;20686;-63
2022/12/10 04:53:32;;;;;;;35.95;15.07;;;-0.50;99.90;;;;;;5069595;28;20225;-63
2022/12/10 04:56:00;;;;;;;35.50;16.00;;;-0.50;99.90;;;;;;5069901;28;20205;-63
2022/12/10 04:58:30;;;;;;;34.13;15.13;;;-0.50;99.90;;;;;;5069839;28;20201;-64
2022/12/10 05:01:02;;;;;;;37.00;18.45;;;-0.50;99.90;;;;;;5069586;28;20211;-63
2022/12/10 05:03:29;;;;;;;34.00;14.85;;;-0.50;99.90;;;;;;5069263;28;20221;-63
2022/12/10 05:05:56;;;;;;;28.88;14.88;;;-0.60;99.90;;;;;;5069144;28;20197;-63
2022/12/10 05:08:23;;;;;;;33.33;14.00;;;-0.50;99.90;;;;;;5069309;28;20201;-63
2022/12/10 05:10:49;;;;;;;33.88;14.48;;;-0.50;99.90;;;;;;5069251;28;20568;-63
2022/12/10 05:13:16;;;;;;;31.10;14.82;;;-0.60;99.90;;;;;;5069140;28;20275;-63
2022/12/10 05:15:44;;;;;;;26.15;13.40;;;-0.60;99.90;;;;;;5069221;28;20235;-62
2022/12/10 05:18:11;;;;;;;22.95;12.90;;;-0.50;99.90;;;;;;5069189;28;20641;-62
2022/12/10 05:20:38;;;;;;;26.15;14.35;;;-0.50;99.90;;;;;;5063860;28;20221;-64
2022/12/10 05:25:53;;;;;;;24.70;12.85;;;-0.50;99.90;;;;;;5056047;28;20189;-63
2022/12/10 05:28:20;;;;;;;22.42;11.70;;;-0.50;99.90;;;;;;5055856;28;20263;-63
2022/12/10 05:30:48;;;;;;;26.38;14.15;;;-0.50;99.90;;;;;;5055400;28;20786;-62
2022/12/10 05:33:15;;;;;;;30.48;13.95;;;-0.50;99.90;;;;;;5055650;28;20720;-62
2022/12/10 05:35:42;;;;;;;27.48;13.65;;;-0.50;99.90;;;;;;5057321;28;20206;-62
2022/12/10 05:38:10;;;;;;;28.02;14.20;;;-0.40;99.90;;;;;;5057545;28;20198;-63
2022/12/10 05:40:42;;;;;;;27.55;14.27;;;-0.40;99.90;;;;;;5057149;28;20220;-64
2022/12/10 05:43:09;;;;;;;27.10;12.95;;;-0.40;99.90;;;;;;5055595;28;20225;-62
2022/12/10 05:45:35;;;;;;;31.20;14.55;;;-0.50;99.90;;;;;;5055694;28;20210;-62
2022/12/10 05:48:04;;;;;;;20.02;13.68;;;-0.50;99.90;;;;;;5055206;28;20670;-62
2022/12/10 05:50:32;;;;;;;23.83;12.52;;;-0.60;99.90;;;;;;5055184;28;20719;-63
2022/12/10 05:52:59;;;;;;;23.20;11.90;;;-0.60;99.90;;;;;;5055130;28;20227;-64
2022/12/10 05:55:26;;;;;;;26.50;12.95;;;-0.60;99.90;;;;;;5055291;28;20222;-63
2022/12/10 05:57:53;;;;;;;22.98;11.10;;;-0.70;99.90;;;;;;5055358;28;20224;-64
2022/12/10 06:00:23;;;;;;;23.10;12.00;;;-0.70;99.90;;;;;;5054811;28;20204;-64
2022/12/10 06:02:50;;;;;;;26.63;13.50;;;-0.70;99.90;;;;;;5054961;28;20228;-63
2022/12/10 06:05:19;;;;;;;29.20;14.95;;;-0.70;99.90;;;;;;5055142;28;20201;-63
2022/12/10 06:07:46;;;;;;;22.85;11.50;;;-0.80;99.90;;;;;;5055042;28;20200;-63
2022/12/10 06:10:13;;;;;;;25.65;12.10;;;-0.80;99.90;;;;;;5054859;28;20220;-63
2022/12/10 06:12:40;;;;;;;25.17;13.02;;;-0.80;99.90;;;;;;5054584;28;20233;-62
2022/12/10 06:15:07;;;;;;;22.50;12.55;;;-0.80;99.90;;;;;;5054719;28;20209;-62
2022/12/10 06:17:36;;;;;;;23.88;12.50;;;-0.80;99.90;;;;;;5054938;28;20576;-62
2022/12/10 06:20:02;;;;;;;22.67;11.85;;;-0.80;99.90;;;;;;5054732;28;20206;-62
2022/12/10 06:22:30;;;;;;;21.90;11.93;;;-0.80;99.90;;;;;;5054505;28;20238;-62
2022/12/10 06:24:57;;;;;;;23.33;12.57;;;-0.70;99.90;;;;;;5055232;28;20298;-62
2022/12/10 06:27:24;;;;;;;20.52;11.07;;;-0.70;99.90;;;;;;5056536;28;20209;-62
2022/12/10 06:29:51;;;;;;;23.80;11.77;;;-0.70;99.90;;;;;;5058038;28;20221;-62
2022/12/10 06:32:17;;;;;;;22.42;12.02;;;-0.70;99.90;;;;;;5056646;28;20225;-63
2022/12/10 06:34:45;;;;;;;22.58;11.60;;;-0.70;99.90;;;;;;5057963;28;20198;-63
2022/12/10 06:37:11;;;;;;;17.90;9.45;;;-0.70;99.90;;;;;;5058942;28;20210;-64
2022/12/10 06:39:40;;;;;;;19.73;11.68;;;-0.70;99.90;;;;;;5059294;28;20673;-63
2022/12/10 06:42:06;;;;;;;24.92;12.40;;;-0.80;99.90;;;;;;5057740;28;20228;-62
2022/12/10 06:44:33;;;;;;;22.85;12.68;;;-0.80;99.90;;;;;;5058129;28;20209;-62
2022/12/10 06:47:00;;;;;;;19.75;11.13;;;-0.90;99.90;;;;;;5056841;28;20211;-62
2022/12/10 06:49:27;;;;;;;18.83;11.57;;;-0.90;99.90;;;;;;5056711;28;20308;-63
2022/12/10 06:51:53;;;;;;;22.05;11.88;;;-1.00;99.90;;;;;;5056854;28;20237;-62
2022/12/10 06:54:20;;;;;;;23.50;12.65;;;-1.00;99.90;;;;;;5056206;28;20232;-62
2022/12/10 06:56:48;;;;;;;24.73;12.27;;;-1.00;99.90;;;;;;5059835;28;20204;-62
2022/12/10 06:59:15;;;;;;;19.75;10.77;;;-1.00;99.90;;;;;;5051969;28;20213;-63
2022/12/10 07:01:42;;;;;;;24.63;11.35;;;-1.00;99.90;;;;;;5058323;28;20239;-62
2022/12/10 07:04:09;;;;;;;21.00;11.15;;;-1.10;99.90;;;;;;5054770;28;20212;-62
2022/12/10 07:06:36;;;;;;;21.35;11.52;;;-1.10;99.90;;;;;;5033883;28;20212;-63
2022/12/10 07:09:03;;;;;;;18.52;9.85;;;-1.10;99.90;;;;;;5043968;28;20220;-62
2022/12/10 07:11:30;;;;;;;18.27;10.43;;;-1.00;99.90;;;;;;5043844;28;20227;-62
2022/12/10 07:13:59;;;;;;;20.13;10.15;;;-1.10;99.90;;;;;;5053130;28;20193;-61
2022/12/10 07:16:28;;;;;;;21.75;10.70;;;-1.10;99.90;;;;;;5056783;28;20750;-63
2022/12/10 07:18:56;;;;;;;22.92;12.75;;;-1.10;99.90;;;;;;5056532;28;20243;-62
2022/12/10 07:21:25;;;;;;;22.15;12.77;;;-1.00;99.90;;;;;;5059922;28;20210;-61
2022/12/10 07:23:53;;;;;;;24.33;13.20;;;-1.00;99.90;;;;;;5057087;28;20216;-61
2022/12/10 07:26:20;;;;;;;21.60;11.77;;;-0.90;99.90;;;;;;5051236;28;20722;-62
2022/12/10 07:28:47;;;;;;;25.60;13.35;;;-1.00;99.90;;;;;;5053957;28;20201;-61
2022/12/10 07:31:15;;;;;;;26.35;11.88;;;-1.00;99.90;;;;;;5050988;28;20253;-62
2022/12/10 07:33:43;;;;;;;22.42;12.48;;;-0.90;99.90;;;;;;5053883;28;20204;-63
2022/12/10 07:36:12;;;;;;;22.65;12.88;;;-0.90;99.90;;;;;;5055366;28;20323;-62
2022/12/10 07:38:39;;;;;;;28.70;13.68;;;-0.90;99.90;;;;;;5052756;28;20678;-62
2022/12/10 07:41:08;;;;;;;29.90;13.93;;;-0.80;99.90;;;;;;5049154;28;20191;-63
2022/12/10 07:43:35;;;;;;;26.80;13.68;;;-0.90;99.90;;;;;;5049456;28;20254;-64
2022/12/10 07:46:06;;;;;;;24.60;12.48;;;-0.90;99.90;;;;;;5056107;28;20323;-62
2022/12/10 07:48:38;;;;;;;27.25;13.50;;;-0.90;99.90;;;;;;5056094;28;20680;-63
2022/12/10 07:51:06;;;;;;;24.55;13.93;;;-0.80;99.90;;;;;;5056487;28;20213;-64
2022/12/10 07:53:33;;;;;;;27.88;14.10;;;-0.80;99.90;;;;;;5053374;28;20225;-63
2022/12/10 07:56:00;;;;;;;27.58;13.98;;;-0.80;99.90;;;;;;5052837;28;20202;-62
2022/12/10 07:58:27;;;;;;;30.35;13.90;;;-0.80;99.90;;;;;;5055551;28;20682;-61
2022/12/10 08:00:53;;;;;;;20.33;11.00;;;-0.80;99.90;;;;;;5060300;28;20568;-62
2022/12/10 08:03:20;;;;;;;24.15;12.00;;;-0.80;99.90;;;;;;5043650;28;20222;-62
2022/12/10 08:05:48;;;;;;;29.48;13.45;;;-0.70;99.90;;;;;;5050247;28;20209;-63
2022/12/10 08:08:15;;;;;;;24.70;14.07;;;-0.70;99.90;;;;;;5057353;28;20205;-63
2022/12/10 08:10:42;;;;;;;28.38;13.27;;;-0.70;99.90;;;;;;5054933;28;20226;-64
2022/12/10 08:13:12;;;;;;;32.15;14.88;;;-0.80;99.90;;;;;;5054269;28;20688;-62
2022/12/10 08:15:38;;;;;;;27.42;12.88;;;-0.70;99.90;;;;;;5052529;28;20202;-63
2022/12/10 08:18:05;;;;;;;24.88;13.18;;;-0.70;99.90;;;;;;5053340;28;20201;-64
2022/12/10 08:20:32;;;;;;;25.73;12.00;;;-0.70;99.90;;;;;;5052028;28;20558;-63
2022/12/10 08:23:00;;;;;;;22.95;13.38;;;-0.70;99.90;;;;;;5053075;28;20249;-63
2022/12/10 08:25:27;;;;;;;33.75;14.05;;;-0.70;99.90;;;;;;5053597;28;20624;-62
2022/12/10 08:27:54;;;;;;;30.60;12.65;;;-0.70;99.90;;;;;;5054063;28;20201;-62
2022/12/10 08:30:21;;;;;;;20.05;11.05;;;-0.70;99.90;;;;;;5054077;28;20224;-62
2022/12/10 08:32:47;;;;;;;24.58;12.70;;;-0.60;99.90;;;;;;5053329;28;20247;-60
2022/12/10 08:35:14;;;;;;;23.67;13.70;;;-0.50;99.90;;;;;;5053735;28;20209;-59
2022/12/10 08:37:42;;;;;;;27.88;13.80;;;-0.40;99.90;;;;;;5053237;28;20297;-61
2022/12/10 08:40:11;;;;;;;28.55;12.20;;;-0.40;99.90;;;;;;5053311;28;20208;-62
2022/12/10 08:42:38;;;;;;;29.58;14.65;;;-0.40;99.90;;;;;;5052889;28;20232;-61
2022/12/10 08:45:05;;;;;;;33.53;13.80;;;-0.40;99.90;;;;;;5053489;28;20235;-64
2022/12/10 08:47:32;;;;;;;20.25;11.07;;;-0.40;99.90;;;;;;5053072;28;20677;-61
2022/12/10 08:49:59;;;;;;;24.08;13.10;;;-0.40;99.90;;;;;;5055820;28;20700;-61
2022/12/10 08:52:28;;;;;;;27.88;14.48;;;-0.40;99.90;;;;;;5054570;28;20270;-62
2022/12/10 08:54:55;;;;;;;30.48;13.43;;;-0.40;99.90;;;;;;5054312;28;20732;-61
2022/12/10 08:57:23;;;;;;;25.83;12.98;;;-0.40;99.90;;;;;;5060263;28;20709;-62
2022/12/10 08:59:50;;;;;;;28.05;13.25;;;-0.30;99.90;;;;;;5058347;28;20204;-61
2022/12/10 09:02:17;;;;;;;27.95;15.02;;;-0.30;99.90;;;;;;5060586;28;20729;-60
2022/12/10 09:04:46;;;;;;;33.95;14.60;;;-0.30;99.90;;;;;;5059748;28;20210;-61
2022/12/10 09:07:12;;;;;;;31.63;14.23;;;-0.20;99.90;;;;;;5061529;28;20212;-61
2022/12/10 09:09:39;;;;;;;25.70;13.98;;;-0.20;99.90;;;;;;5062020;28;20212;-61
2022/12/10 09:12:06;;;;;;;25.50;14.00;;;-0.10;99.90;;;;;;5060238;28;20248;-63
2022/12/10 09:14:35;;;;;;;22.45;13.85;;;-0.20;99.90;;;;;;5062349;28;20716;-61
2022/12/10 09:17:04;;;;;;;29.83;14.45;;;-0.20;99.90;;;;;;5062355;28;20573;-61
2022/12/10 09:19:31;;;;;;;33.25;16.40;;;-0.20;99.90;;;;;;5063802;28;20292;-61
2022/12/10 09:21:58;;;;;;;31.25;15.77;;;-0.20;99.90;;;;;;5059870;28;20225;-61
2022/12/10 09:24:25;;;;;;;29.80;16.05;;;-0.20;99.90;;;;;;5061990;28;20237;-62
2022/12/10 09:26:52;;;;;;;31.27;13.07;;;-0.20;99.90;;;;;;5061438;28;20198;-61
2022/12/10 09:29:18;;;;;;;27.00;14.23;;;-0.20;99.90;;;;;;5061547;28;20201;-61
2022/12/10 09:31:50;;;;;;;31.98;14.73;;;-0.20;99.90;;;;;;5060336;28;20313;-62
2022/12/10 09:34:17;;;;;;;27.38;12.88;;;-0.30;99.90;;;;;;5061242;28;20193;-61
2022/12/10 09:36:44;;;;;;;29.27;14.00;;;-0.30;99.90;;;;;;5079365;28;20197;-61
2022/12/10 09:39:11;;;;;;;31.77;14.77;;;-0.40;99.90;;;;;;5069691;28;20661;-61
2022/12/10 09:42:01;;;;;;;29.30;15.70;;;-0.40;99.90;;;;;;5061802;28;20233;-62
2022/12/10 09:44:37;;;;;;;29.88;14.27;;;-0.50;99.90;;;;;;5079131;28;20538;-61
2022/12/10 09:47:09;;;;;;;29.30;13.57;;;-0.50;99.90;;;;;;5081923;28;20282;-63
2022/12/10 09:49:49;;;;;;;30.23;14.30;;;-0.50;99.90;;;;;;5061067;28;20265;-61
2022/12/10 09:52:19;;;;;;;29.27;14.73;;;-0.50;99.90;;;;;;5063730;28;20213;-61
2022/12/10 09:54:50;;;;;;;26.48;12.73;;;-0.50;99.90;;;;;;5045459;28;20646;-61
2022/12/10 09:57:22;;;;;;;29.50;15.32;;;-0.50;99.90;;;;;;5057268;28;20212;-61
2022/12/10 09:59:51;;;;;;;30.42;15.30;;;-0.50;99.90;;;;;;5062990;28;20673;-62
2022/12/10 10:02:24;;;;;;;31.30;14.48;;;-0.50;99.90;;;;;;5060564;28;20321;-61
2022/12/10 10:04:53;;;;;;;30.17;15.15;;;-0.50;99.90;;;;;;5061085;28;20676;-60
2022/12/10 10:07:23;;;;;;;27.60;14.38;;;-0.50;99.90;;;;;;5068049;28;20209;-60
2022/12/10 10:09:51;;;;;;;25.92;13.88;;;-0.50;99.90;;;;;;5054195;28;20206;-61
2022/12/10 10:12:18;;;;;;;28.63;12.15;;;-0.50;99.90;;;;;;5039520;28;20296;-61
2022/12/10 10:14:45;;;;;;;29.58;14.77;;;-0.50;99.90;;;;;;5056282;28;20210;-61
2022/12/10 10:17:19;;;;;;;25.35;14.18;;;-0.50;99.90;;;;;;5058252;28;20232;-61
2022/12/10 10:19:49;;;;;;;27.65;14.30;;;-0.50;99.90;;;;;;5059836;28;20189;-61
2022/12/10 10:22:16;;;;;;;31.20;15.60;;;-0.50;99.90;;;;;;5043502;28;20313;-61
2022/12/10 10:24:45;;;;;;;29.88;15.45;;;-0.50;99.90;;;;;;5037571;28;20213;-61
2022/12/10 10:27:15;;;;;;;28.20;14.95;;;-0.50;99.90;;;;;;5046555;28;20204;-59
2022/12/10 10:29:42;;;;;;;24.60;12.98;;;-0.50;99.90;;;;;;5062439;28;20205;-61
2022/12/10 10:32:15;;;;;;;29.35;13.90;;;-0.50;99.90;;;;;;5061237;28;20754;-62
2022/12/10 10:34:43;;;;;;;25.85;13.35;;;-0.50;99.90;;;;;;5057845;28;20204;-61
2022/12/10 10:37:26;;;;;;;28.25;14.27;;;-0.50;99.90;;;;;;5058409;28;20212;-61
2022/12/10 10:39:53;;;;;;;32.53;15.75;;;-0.50;99.90;;;;;;5056274;28;20190;-61
2022/12/10 10:42:34;;;;;;;28.00;14.95;;;-0.50;99.90;;;;;;5054535;28;20216;-61
2022/12/10 10:45:03;;;;;;;29.67;16.10;;;-0.50;99.90;;;;;;5059284;28;20199;-62
2022/12/10 10:47:32;;;;;;;33.85;16.48;;;-0.40;99.90;;;;;;5058214;28;20664;-61
2022/12/10 10:49:59;;;;;;;29.67;15.82;;;-0.40;99.90;;;;;;5055301;28;20209;-60
2022/12/10 10:52:31;;;;;;;30.98;15.93;;;-0.40;99.90;;;;;;5059987;28;20224;-61
2022/12/10 10:54:57;;;;;;;29.48;14.40;;;-0.40;99.90;;;;;;5051664;28;20673;-62
2022/12/10 10:57:29;;;;;;;28.92;15.13;;;-0.50;99.90;;;;;;5045084;28;20253;-63
2022/12/10 11:00:03;;;;;;;29.42;15.00;;;-0.50;99.90;;;;;;5035027;28;20620;-63
2022/12/10 11:02:33;;;;;;;27.58;13.95;;;-0.50;99.90;;;;;;5038827;28;20214;-61
2022/12/10 11:05:07;;;;;;;26.00;14.20;;;-0.50;99.90;;;;;;5039496;28;20202;-63
2022/12/10 11:07:38;;;;;;;26.33;14.32;;;-0.50;99.90;;;;;;5040631;28;20182;-63
2022/12/10 11:10:18;;;;;;;27.52;14.13;;;-0.40;99.90;;;;;;5040191;28;20562;-63
2022/12/10 11:12:53;;;;;;;27.88;14.30;;;-0.40;99.90;;;;;;5049421;28;20227;-63
2022/12/10 11:15:32;;;;;;;33.85;18.48;;;-0.30;99.90;;;;;;5058122;28;20637;-62
2022/12/10 11:18:00;;;;;;;25.20;14.57;;;-0.30;99.90;;;;;;5058859;28;20255;-63
2022/12/10 11:20:30;;;;;;;30.48;14.40;;;-0.30;99.90;;;;;;5057455;28;20206;-63
2022/12/10 11:23:00;;;;;;;28.65;14.05;;;-0.30;99.90;;;;;;5056110;28;20236;-63
2022/12/10 11:25:39;;;;;;;32.72;14.85;;;-0.40;99.90;;;;;;5056009;28;20201;-60
2022/12/10 11:28:15;;;;;;;31.30;14.38;;;-0.40;99.90;;;;;;5057746;28;20193;-61
2022/12/10 11:30:49;;;;;;;22.35;14.38;;;-0.40;99.90;;;;;;5056070;28;20212;-60
2022/12/10 11:33:25;;;;;;;26.58;14.27;;;-0.40;99.90;;;;;;5056513;28;20236;-60
2022/12/10 11:36:02;;;;;;;30.50;16.08;;;-0.40;99.90;;;;;;5057299;28;20672;-60
2022/12/10 11:38:37;;;;;;;31.67;15.35;;;-0.40;99.90;;;;;;5057182;28;20186;-60
2022/12/10 11:41:15;;;;;;;31.15;14.23;;;-0.40;99.90;;;;;;5056002;28;20197;-61
2022/12/10 11:44:01;;;;;;;27.95;15.52;;;-0.40;99.90;;;;;;5057967;28;20185;-61
2022/12/10 11:46:43;;;;;;;31.00;16.60;;;-0.40;99.90;;;;;;5056373;28;20200;-59
2022/12/10 11:49:24;;;;;;;27.27;14.98;;;-0.40;99.90;;;;;;5058062;28;20192;-60
2022/12/10 11:52:02;;;;;;;25.42;15.85;;;-0.40;99.90;;;;;;5062326;28;20221;-60
2022/12/10 11:54:43;;;;;;;32.15;14.43;;;-0.40;99.90;;;;;;5061954;28;20559;-61
2022/12/10 11:57:18;;;;;;;36.58;16.02;;;-0.40;99.90;;;;;;5059936;28;20641;-60
2022/12/10 11:59:48;;;;;;;29.10;15.25;;;-0.40;99.90;;;;;;5057580;28;20655;-59
2022/12/10 12:02:49;;;;;;;24.20;13.57;;;-0.40;99.90;;;;;;5056732;28;20214;-61
2022/12/10 12:05:37;;;;;;;26.65;13.70;;;-0.40;99.90;;;;;;5056947;28;20190;-61
2022/12/10 12:08:13;;;;;;;32.10;15.30;;;-0.40;99.90;;;;;;5057049;28;20735;-61
2022/12/10 12:10:58;;;;;;;27.23;14.02;;;-0.40;99.90;;;;;;5055066;28;20189;-62
2022/12/10 12:13:28;;;;;;;28.13;14.40;;;-0.40;99.90;;;;;;5056798;28;20221;-62
2022/12/10 12:16:00;;;;;;;30.55;14.90;;;-0.40;99.90;;;;;;5056504;28;20201;-62
2022/12/10 12:18:36;;;;;;;27.75;14.38;;;-0.40;99.90;;;;;;5056392;28;20189;-63
2022/12/10 12:21:06;;;;;;;24.27;13.52;;;-0.40;99.90;;;;;;5056595;28;20178;-61
2022/12/10 12:23:44;;;;;;;24.55;14.00;;;-0.40;99.90;;;;;;5055339;28;20232;-62
2022/12/10 12:26:15;;;;;;;24.30;12.88;;;-0.40;99.90;;;;;;5053591;28;20186;-62
2022/12/10 12:28:48;;;;;;;27.10;14.70;;;-0.30;99.90;;;;;;5055648;28;20197;-61
2022/12/10 12:31:20;;;;;;;29.23;15.57;;;-0.30;99.90;;;;;;5055831;28;20225;-62
2022/12/10 12:33:54;;;;;;;31.33;15.85;;;-0.20;99.90;;;;;;5058739;28;20192;-60
2022/12/10 12:36:23;;;;;;;27.70;13.90;;;-0.10;99.90;;;;;;5059461;28;20192;-59
2022/12/10 12:38:59;;;;;;;32.22;17.98;;;-0.10;99.90;;;;;;5059692;28;20218;-62
2022/12/10 12:41:33;;;;;;;26.30;15.20;;;-0.10;99.90;;;;;;5058583;28;20273;-61
2022/12/10 12:44:08;;;;;;;31.02;14.50;;;-0.20;99.90;;;;;;5059311;28;20189;-63
2022/12/10 12:46:44;;;;;;;24.83;13.63;;;-0.20;99.90;;;;;;5058324;28;20199;-61
2022/12/10 12:49:19;;;;;;;26.75;14.50;;;-0.20;99.90;;;;;;5058543;28;20197;-62
2022/12/10 12:51:52;;;;;;;30.58;15.73;;;-0.30;99.90;;;;;;5058581;28;20255;-62
2022/12/10 12:54:19;;;;;;;27.63;15.50;;;-0.30;99.90;;;;;;5059766;28;20635;-62
2022/12/10 12:57:15;;;;;;;29.10;14.65;;;-0.30;99.90;;;;;;5058509;28;20231;-61
2022/12/10 12:59:55;;;;;;;28.52;14.60;;;-0.30;99.90;;;;;;5040368;28;20201;-63